createdAt,value
2023-02-18T00:00:05.368Z,3.35
2023-02-18T00:02:32.698Z,3.10
2023-02-18T00:04:59.567Z,2.90
2023-02-18T00:07:26.526Z,3.22
2023-02-18T00:09:53.185Z,3.17
2023-02-18T00:12:21.503Z,2.80
2023-02-18T00:14:48.575Z,3.63
2023-02-18T00:17:15.676Z,3.45
2023-02-18T00:19:42.693Z,3.25
2023-02-18T00:22:09.692Z,3.45
2023-02-18T00:24:36.394Z,4.00
2023-02-18T00:27:03.405Z,4.60
2023-02-18T00:29:32.405Z,3.60
2023-02-18T00:31:59.211Z,4.00
2023-02-18T00:34:26.123Z,4.10
2023-02-18T00:36:52.938Z,3.58
2023-02-18T00:39:26.412Z,4.43
2023-02-18T00:41:53.110Z,4.38
2023-02-18T00:44:20.118Z,4.03
2023-02-18T00:46:48.319Z,3.65
2023-02-18T00:49:16.319Z,4.15
2023-02-18T00:51:43.439Z,4.25
2023-02-18T00:54:10.639Z,4.20
2023-02-18T00:56:37.390Z,3.35
2023-02-18T00:59:04.389Z,3.92
2023-02-18T01:01:31.151Z,4.85
2023-02-18T01:03:59.593Z,4.07
2023-02-18T01:06:26.439Z,4.30
2023-02-18T01:08:53.170Z,3.90
2023-02-18T01:11:21.840Z,4.68
2023-02-18T01:13:48.842Z,4.60
2023-02-18T01:16:15.825Z,5.18
2023-02-18T01:18:42.625Z,3.85
2023-02-18T01:21:11.020Z,4.00
2023-02-18T01:23:39.322Z,4.97
2023-02-18T01:26:07.091Z,4.15
2023-02-18T01:28:34.229Z,4.53
2023-02-18T01:31:05.348Z,5.00
2023-02-18T01:33:32.093Z,4.18
2023-02-18T01:35:58.794Z,4.88
2023-02-18T01:38:26.937Z,4.88
2023-02-18T01:40:53.717Z,5.05
2023-02-18T01:43:21.645Z,5.40
2023-02-18T01:45:58.927Z,4.65
2023-02-18T01:48:30.293Z,5.10
2023-02-18T01:53:35.945Z,4.97
2023-02-18T01:56:08.942Z,4.43
2023-02-18T01:58:36.681Z,4.93
2023-02-18T02:01:04.256Z,5.28
2023-02-18T02:03:31.406Z,5.05
2023-02-18T02:05:58.154Z,4.53
2023-02-18T02:08:25.130Z,5.70
2023-02-18T02:11:07.780Z,4.57
2023-02-18T02:13:52.906Z,5.40
2023-02-18T02:16:25.840Z,4.20
2023-02-18T02:19:04.215Z,4.95
2023-02-18T02:21:58.229Z,4.50
2023-02-18T02:24:56.709Z,5.43
2023-02-18T02:27:29.222Z,4.15
2023-02-18T02:30:41.841Z,4.97
2023-02-18T02:33:35.238Z,4.20
2023-02-18T02:36:12.733Z,4.13
2023-02-18T02:38:54.358Z,4.55
2023-02-18T02:41:33.664Z,3.33
2023-02-18T02:44:12.043Z,3.30
2023-02-18T02:46:41.234Z,3.63
2023-02-18T02:49:20.010Z,3.70
2023-02-18T02:51:56.737Z,2.58
2023-02-18T02:54:29.311Z,3.13
2023-02-18T02:57:08.765Z,2.42
2023-02-18T02:59:39.737Z,3.20
2023-02-18T03:02:24.417Z,2.70
2023-02-18T03:05:00.658Z,2.97
2023-02-18T03:07:57.060Z,3.08
2023-02-18T03:10:46.562Z,3.08
2023-02-18T03:13:25.975Z,2.63
2023-02-18T03:15:56.641Z,2.70
2023-02-18T03:18:31.263Z,3.00
2023-02-18T03:21:04.815Z,2.60
2023-02-18T03:23:37.497Z,2.92
2023-02-18T03:26:10.077Z,2.90
2023-02-18T03:28:38.904Z,3.42
2023-02-18T03:31:10.796Z,4.32
2023-02-18T03:33:40.637Z,5.43
2023-02-18T03:36:09.393Z,7.53
2023-02-18T03:38:40.631Z,10.20
2023-02-18T03:41:09.042Z,11.18
2023-02-18T03:43:35.762Z,12.15
2023-02-18T03:46:03.450Z,12.50
2023-02-18T03:48:30.261Z,14.25
2023-02-18T03:50:57.063Z,14.10
2023-02-18T03:53:24.044Z,17.13
2023-02-18T03:55:50.730Z,16.30
2023-02-18T03:58:19.082Z,16.90
2023-02-18T04:00:45.929Z,16.55
2023-02-18T04:03:12.664Z,16.20
2023-02-18T04:05:39.403Z,17.10
2023-02-18T04:08:06.197Z,16.90
2023-02-18T04:10:33.059Z,17.05
2023-02-18T04:12:59.958Z,20.20
2023-02-18T04:15:28.239Z,19.48
2023-02-18T04:17:55.101Z,18.23
2023-02-18T04:20:22.272Z,20.48
2023-02-18T04:22:49.650Z,21.98
2023-02-18T04:25:18.620Z,21.05
2023-02-18T04:27:45.454Z,22.33
2023-02-18T04:30:13.128Z,25.73
2023-02-18T04:32:43.230Z,26.13
2023-02-18T04:35:10.653Z,27.42
2023-02-18T04:37:38.003Z,27.48
2023-02-18T04:40:05.831Z,29.38
2023-02-18T04:42:32.592Z,29.30
2023-02-18T04:44:59.623Z,31.05
2023-02-18T04:47:27.102Z,30.98
2023-02-18T04:49:55.265Z,32.35
2023-02-18T04:52:24.534Z,33.08
2023-02-18T04:54:51.388Z,33.33
2023-02-18T04:57:18.379Z,33.85
2023-02-18T04:59:48.402Z,33.05
2023-02-18T05:02:15.464Z,32.55
2023-02-18T05:04:42.772Z,31.50
2023-02-18T05:07:10.921Z,30.98
2023-02-18T05:09:37.723Z,28.73
2023-02-18T05:12:04.746Z,29.17
2023-02-18T05:14:31.505Z,30.35
2023-02-18T05:16:58.222Z,29.85
2023-02-18T05:19:25.023Z,29.83
2023-02-18T05:21:51.811Z,28.60
2023-02-18T05:24:20.054Z,30.83
2023-02-18T05:26:46.816Z,32.30
2023-02-18T05:29:13.567Z,31.45
2023-02-18T05:31:40.318Z,32.88
2023-02-18T05:34:07.343Z,31.58
2023-02-18T05:36:34.608Z,30.98
2023-02-18T05:39:01.299Z,30.02
2023-02-18T05:41:29.424Z,27.60
2023-02-18T05:43:56.213Z,26.48
2023-02-18T05:46:24.640Z,27.10
2023-02-18T05:48:51.365Z,23.88
2023-02-18T05:51:18.517Z,22.50
2023-02-18T05:53:45.477Z,21.40
2023-02-18T05:56:12.180Z,20.65
2023-02-18T05:58:40.354Z,18.63
2023-02-18T06:01:07.065Z,19.63
2023-02-18T06:03:33.747Z,19.10
2023-02-18T06:06:00.544Z,17.83
2023-02-18T06:08:27.702Z,18.10
2023-02-18T06:10:54.399Z,16.42
2023-02-18T06:13:21.089Z,16.45
2023-02-18T06:15:51.012Z,15.48
2023-02-18T06:18:18.554Z,14.48
2023-02-18T06:20:47.171Z,14.48
2023-02-18T06:23:14.419Z,14.77
2023-02-18T06:25:41.535Z,15.70
2023-02-18T06:28:08.486Z,16.73
2023-02-18T06:30:36.437Z,17.20
2023-02-18T06:33:04.606Z,19.17
2023-02-18T06:35:31.752Z,19.75
2023-02-18T06:37:58.721Z,22.70
2023-02-18T06:40:25.511Z,22.42
2023-02-18T06:42:52.397Z,24.20
2023-02-18T06:45:19.378Z,23.75
2023-02-18T06:47:46.071Z,23.88
2023-02-18T06:50:14.594Z,24.23
2023-02-18T06:52:41.342Z,24.10
2023-02-18T06:55:09.144Z,22.13
2023-02-18T06:57:36.253Z,23.30
2023-02-18T07:00:04.211Z,22.20
2023-02-18T07:02:30.916Z,21.70
2023-02-18T07:04:57.636Z,21.20
2023-02-18T07:07:37.611Z,19.42
2023-02-18T07:10:13.099Z,17.52
2023-02-18T07:12:55.617Z,17.50
2023-02-18T07:15:29.053Z,17.42
2023-02-18T07:18:05.245Z,16.58
2023-02-18T07:20:36.834Z,16.60
2023-02-18T07:23:16.049Z,15.93
2023-02-18T07:26:06.138Z,15.60
2023-02-18T07:28:37.404Z,14.52
2023-02-18T07:31:08.580Z,14.98
2023-02-18T07:33:47.584Z,12.90
2023-02-18T07:36:14.760Z,13.73
2023-02-18T07:38:55.704Z,12.90
2023-02-18T07:41:46.736Z,12.70
2023-02-18T07:44:42.062Z,11.57
2023-02-18T07:47:27.842Z,10.93
2023-02-18T07:49:57.924Z,9.15
2023-02-18T07:55:52.497Z,7.28
2023-02-18T07:58:36.288Z,7.53
2023-02-18T08:01:09.206Z,6.68
2023-02-18T08:03:41.877Z,6.00
2023-02-18T08:06:52.446Z,6.60
2023-02-18T08:22:22.414Z,5.25
2023-02-18T08:25:18.088Z,4.65
2023-02-18T08:27:57.993Z,5.30
2023-02-18T08:30:31.693Z,5.20
2023-02-18T08:33:06.643Z,5.22
2023-02-18T08:35:44.967Z,6.30
2023-02-18T08:38:28.457Z,5.50
2023-02-18T08:41:27.984Z,5.38
2023-02-18T08:43:58.058Z,5.70
2023-02-18T08:46:33.498Z,5.00
2023-02-18T08:49:15.502Z,5.30
2023-02-18T08:51:43.198Z,6.65
2023-02-18T08:54:24.852Z,6.55
2023-02-18T08:56:55.279Z,6.07
2023-02-18T08:59:22.326Z,5.70
2023-02-18T09:01:49.343Z,5.40
2023-02-18T10:21:01.041Z,2.25
